createdAt,value
2018-05-26T00:02:19.211Z,13.10
2018-05-26T00:04:46.726Z,13.10
2018-05-26T00:07:14.245Z,13.10
2018-05-26T00:09:42.514Z,12.90
2018-05-26T00:12:10.020Z,12.90
2018-05-26T00:14:37.524Z,12.90
2018-05-26T00:17:05.313Z,12.80
2018-05-26T00:19:32.847Z,12.80
2018-05-26T00:22:00.455Z,12.80
2018-05-26T00:24:29.149Z,12.70
2018-05-26T00:26:57.661Z,12.70
2018-05-26T00:29:25.430Z,12.60
2018-05-26T00:31:53.729Z,12.60
2018-05-26T00:34:22.036Z,12.60
2018-05-26T00:36:49.558Z,12.60
2018-05-26T00:39:17.097Z,12.50
2018-05-26T00:41:45.464Z,12.60
2018-05-26T00:44:12.974Z,12.60
2018-05-26T00:46:40.498Z,12.60
2018-05-26T00:49:08.015Z,12.60
2018-05-26T00:51:35.585Z,12.60
2018-05-26T00:54:03.167Z,12.50
2018-05-26T00:56:30.805Z,12.50
2018-05-26T00:58:58.341Z,12.50
2018-05-26T01:01:25.963Z,12.50
2018-05-26T01:03:53.517Z,12.50
2018-05-26T01:06:21.019Z,12.50
2018-05-26T01:08:48.577Z,12.50
2018-05-26T01:11:16.130Z,12.40
2018-05-26T01:13:43.675Z,12.40
2018-05-26T01:16:11.179Z,12.50
2018-05-26T01:18:38.730Z,12.40
2018-05-26T01:21:06.243Z,12.40
2018-05-26T01:23:34.125Z,12.40
2018-05-26T01:26:01.640Z,12.40
2018-05-26T01:28:29.176Z,12.40
2018-05-26T01:30:56.799Z,12.40
2018-05-26T01:33:24.311Z,12.30
2018-05-26T01:35:51.843Z,12.20
2018-05-26T01:38:19.347Z,12.20
2018-05-26T01:40:46.892Z,12.20
2018-05-26T01:43:14.446Z,12.20
2018-05-26T01:45:41.945Z,12.20
2018-05-26T01:48:09.495Z,12.10
2018-05-26T01:50:36.996Z,12.10
2018-05-26T01:53:04.511Z,12.10
2018-05-26T01:55:32.085Z,12.10
2018-05-26T01:57:59.708Z,12.10
2018-05-26T02:00:28.106Z,12.30
2018-05-26T02:02:55.699Z,12.20
2018-05-26T02:05:23.288Z,12.30
2018-05-26T02:07:51.588Z,12.30
2018-05-26T02:10:19.889Z,12.40
2018-05-26T02:12:47.479Z,12.40
2018-05-26T02:15:15.927Z,12.30
2018-05-26T02:17:43.478Z,12.30
2018-05-26T02:20:11.737Z,12.20
2018-05-26T02:22:39.246Z,12.10
2018-05-26T02:25:06.766Z,12.10
2018-05-26T02:27:34.312Z,12.10
2018-05-26T02:30:01.825Z,12.20
2018-05-26T02:32:29.378Z,12.20
2018-05-26T02:34:56.995Z,12.10
2018-05-26T02:37:24.550Z,12.20
2018-05-26T02:39:52.081Z,12.20
2018-05-26T02:42:19.611Z,12.30
2018-05-26T02:44:47.188Z,12.40
2018-05-26T02:47:14.708Z,12.40
2018-05-26T02:49:42.998Z,12.50
2018-05-26T02:52:11.293Z,12.50
2018-05-26T02:54:38.790Z,12.60
2018-05-26T02:57:07.063Z,12.80
2018-05-26T02:59:34.572Z,12.70
2018-05-26T03:02:02.892Z,12.90
2018-05-26T03:04:36.781Z,13.00
2018-05-26T03:07:09.982Z,13.00
2018-05-26T03:09:43.226Z,13.00
2018-05-26T03:12:16.528Z,13.10
2018-05-26T03:14:47.444Z,13.20
2018-05-26T03:20:19.719Z,13.30
2018-05-26T03:22:47.193Z,13.30
2018-05-26T03:25:14.738Z,13.40
2018-05-26T03:27:42.211Z,13.50
2018-05-26T03:30:09.694Z,13.60
2018-05-26T03:32:37.153Z,13.50
2018-05-26T03:35:05.401Z,13.60
2018-05-26T03:37:32.878Z,13.50
2018-05-26T03:40:00.378Z,13.60
2018-05-26T03:42:27.855Z,13.60
2018-05-26T03:44:55.389Z,13.70
2018-05-26T03:47:22.911Z,13.70
2018-05-26T03:49:50.393Z,13.80
2018-05-26T03:52:17.887Z,13.70
2018-05-26T03:55:09.111Z,13.70
2018-05-26T03:57:48.382Z,13.70
2018-05-26T04:00:15.894Z,13.80
2018-05-26T04:02:43.378Z,13.80
2018-05-26T04:05:10.845Z,13.90
2018-05-26T04:07:38.326Z,14.00
2018-05-26T04:10:05.810Z,14.10
2018-05-26T04:12:33.282Z,14.00
2018-05-26T04:15:00.779Z,13.70
2018-05-26T04:17:28.297Z,13.70
2018-05-26T04:19:55.785Z,13.70
2018-05-26T04:22:23.295Z,13.70
2018-05-26T04:24:51.537Z,13.70
2018-05-26T04:27:19.052Z,13.70
2018-05-26T04:29:46.528Z,13.70
2018-05-26T04:32:14.016Z,13.70
2018-05-26T04:34:41.486Z,13.70
2018-05-26T04:37:08.965Z,13.70
2018-05-26T04:39:36.442Z,13.70
2018-05-26T04:42:03.927Z,13.90
2018-05-26T04:44:32.170Z,14.00
2018-05-26T04:47:00.412Z,14.10
2018-05-26T04:49:28.825Z,14.00
2018-05-26T04:51:57.071Z,14.10
2018-05-26T04:54:25.359Z,14.00
2018-05-26T04:56:52.842Z,14.00
2018-05-26T04:59:20.306Z,14.10
2018-05-26T05:01:48.549Z,13.80
2018-05-26T05:04:16.041Z,13.80
2018-05-26T05:06:44.286Z,13.70
2018-05-26T05:09:12.522Z,13.90
2018-05-26T05:11:40.002Z,13.90
2018-05-26T05:14:08.240Z,13.70
2018-05-26T05:16:35.714Z,13.70
2018-05-26T05:19:03.945Z,13.80
2018-05-26T05:21:33.690Z,13.90
2018-05-26T05:24:01.158Z,13.90
2018-05-26T05:26:28.649Z,14.10
2018-05-26T05:28:56.178Z,14.40
2018-05-26T05:31:23.669Z,14.50
2018-05-26T05:33:51.143Z,14.70
2018-05-26T05:36:18.614Z,14.90
2018-05-26T05:38:46.092Z,15.10
2018-05-26T05:41:13.597Z,15.00
2018-05-26T05:43:41.079Z,15.20
2018-05-26T05:46:08.554Z,15.30
2018-05-26T05:48:36.793Z,15.10
2018-05-26T05:51:04.255Z,15.00
2018-05-26T05:53:31.738Z,15.10
2018-05-26T05:55:59.990Z,14.90
2018-05-26T05:58:27.661Z,14.90
2018-05-26T06:00:55.121Z,15.10
2018-05-26T06:03:22.591Z,15.20
2018-05-26T06:05:50.066Z,14.90
2018-05-26T06:08:17.530Z,14.70
2018-05-26T06:10:45.806Z,14.90
2018-05-26T06:13:13.466Z,14.90
2018-05-26T06:15:40.934Z,14.90
2018-05-26T06:18:08.411Z,15.20
2018-05-26T06:20:36.651Z,15.00
2018-05-26T06:23:04.127Z,15.00
2018-05-26T06:25:31.601Z,15.60
2018-05-26T06:27:59.863Z,15.80
2018-05-26T06:30:27.360Z,15.80
2018-05-26T06:32:54.830Z,16.10
2018-05-26T06:35:22.298Z,16.50
2018-05-26T06:37:49.773Z,16.60
2018-05-26T06:40:17.245Z,15.80
2018-05-26T06:42:44.739Z,15.70
2018-05-26T06:45:12.261Z,16.10
2018-05-26T06:47:40.457Z,16.20
2018-05-26T06:50:07.917Z,16.20
2018-05-26T06:52:35.403Z,16.50
2018-05-26T06:55:03.429Z,16.60
2018-05-26T06:57:31.114Z,16.80
2018-05-26T06:59:58.615Z,17.20
2018-05-26T07:02:26.161Z,17.80
2018-05-26T07:04:54.405Z,19.00
2018-05-26T07:07:22.637Z,18.60
2018-05-26T07:09:50.870Z,18.70
2018-05-26T07:12:18.341Z,18.70
2018-05-26T07:14:45.843Z,18.80
2018-05-26T07:17:13.330Z,18.50
2018-05-26T07:19:40.801Z,18.20
2018-05-26T07:22:08.291Z,17.50
2018-05-26T07:24:35.767Z,17.80
2018-05-26T07:27:03.249Z,17.90
2018-05-26T07:29:30.811Z,18.10
2018-05-26T07:31:58.345Z,17.80
2018-05-26T07:34:26.245Z,18.20
2018-05-26T07:36:54.489Z,18.90
2018-05-26T07:39:21.963Z,18.80
2018-05-26T07:41:50.204Z,18.90
2018-05-26T07:44:19.300Z,18.60
2018-05-26T07:46:46.773Z,18.60
2018-05-26T07:49:14.251Z,18.60
2018-05-26T07:51:41.717Z,18.20
2018-05-26T07:54:09.189Z,18.70
2018-05-26T07:56:37.282Z,19.20
2018-05-26T07:59:04.806Z,19.30
2018-05-26T08:01:32.279Z,19.10
2018-05-26T08:03:59.763Z,19.30
2018-05-26T08:06:27.273Z,19.50
2018-05-26T08:08:54.746Z,20.30
2018-05-26T08:11:22.266Z,21.50
2018-05-26T08:13:50.570Z,23.40
2018-05-26T08:16:19.506Z,25.00
2018-05-26T08:18:46.961Z,24.90
2018-05-26T08:21:14.440Z,24.50
2018-05-26T08:23:41.905Z,24.90
2018-05-26T08:26:09.405Z,24.10
2018-05-26T08:28:36.887Z,23.30
2018-05-26T08:31:04.879Z,23.00
2018-05-26T08:33:33.225Z,23.70
2018-05-26T08:36:00.686Z,24.90
2018-05-26T08:38:28.187Z,25.20
2018-05-26T08:40:55.726Z,27.20
2018-05-26T08:43:23.201Z,26.40
2018-05-26T08:45:50.692Z,26.80
2018-05-26T08:48:18.937Z,25.80
2018-05-26T08:50:47.197Z,24.80
2018-05-26T08:53:15.453Z,24.80
2018-05-26T08:55:42.913Z,24.80
2018-05-26T08:58:10.393Z,25.90
2018-05-26T09:00:37.845Z,25.00
2018-05-26T09:03:06.096Z,23.90
2018-05-26T09:05:34.318Z,24.70
2018-05-26T09:08:01.798Z,24.70
2018-05-26T09:10:29.348Z,26.80
2018-05-26T09:12:56.884Z,25.40
2018-05-26T09:15:24.417Z,26.10
2018-05-26T09:17:51.902Z,28.60
2018-05-26T09:20:19.361Z,29.70
2018-05-26T09:22:46.837Z,30.20
2018-05-26T09:25:17.550Z,29.80
2018-05-26T09:27:45.051Z,30.00
2018-05-26T09:30:12.560Z,31.40
2018-05-26T09:32:40.769Z,28.80
2018-05-26T09:35:08.241Z,28.80
2018-05-26T09:37:36.951Z,28.30
2018-05-26T09:40:04.445Z,30.30
2018-05-26T09:42:31.964Z,29.80
2018-05-26T09:44:59.580Z,28.10
2018-05-26T09:47:28.691Z,28.90
2018-05-26T09:49:58.025Z,28.80
2018-05-26T09:52:25.546Z,28.70
2018-05-26T09:54:53.058Z,28.30
2018-05-26T09:57:20.548Z,27.90
2018-05-26T09:59:49.022Z,27.50
2018-05-26T10:02:16.519Z,27.20
2018-05-26T10:04:44.891Z,28.30
2018-05-26T10:07:12.353Z,28.20
2018-05-26T10:09:40.691Z,27.90
2018-05-26T10:12:11.783Z,28.90
2018-05-26T10:14:39.247Z,29.60
2018-05-26T10:17:06.817Z,31.00
2018-05-26T10:19:35.351Z,30.80
2018-05-26T10:22:02.963Z,30.00
2018-05-26T10:24:31.302Z,31.90
2018-05-26T10:26:58.996Z,31.90
2018-05-26T10:29:27.387Z,30.40
2018-05-26T10:31:54.939Z,30.40
2018-05-26T10:34:27.655Z,31.60
2018-05-26T10:36:55.131Z,29.10
2018-05-26T10:39:23.422Z,31.10
2018-05-26T10:41:54.629Z,31.10
2018-05-26T10:44:22.118Z,31.30
2018-05-26T10:46:49.581Z,30.80
2018-05-26T10:49:17.247Z,29.40
2018-05-26T10:51:44.753Z,31.10
2018-05-26T10:54:12.251Z,32.50
2018-05-26T10:56:48.110Z,31.70
2018-05-26T10:59:16.943Z,30.30
2018-05-26T11:01:57.014Z,31.00
2018-05-26T11:04:25.394Z,32.50
2018-05-26T11:06:57.378Z,34.00
2018-05-26T11:09:29.158Z,32.80
2018-05-26T11:11:57.915Z,32.70
2018-05-26T11:14:27.509Z,34.40
2018-05-26T11:16:59.317Z,32.00
2018-05-26T11:19:28.007Z,31.80
2018-05-26T11:21:56.348Z,32.40
2018-05-26T11:24:23.997Z,32.30
2018-05-26T11:26:51.417Z,32.50
2018-05-26T11:29:18.914Z,33.00
2018-05-26T11:31:46.438Z,33.10
2018-05-26T11:34:13.963Z,32.70
2018-05-26T11:36:42.468Z,30.90
2018-05-26T11:39:18.350Z,31.40
2018-05-26T11:41:57.075Z,33.30
2018-05-26T11:44:24.607Z,32.50
2018-05-26T11:46:52.108Z,33.70
2018-05-26T11:49:19.610Z,33.90
2018-05-26T11:51:47.119Z,33.60
2018-05-26T11:54:15.388Z,32.60
2018-05-26T11:56:43.683Z,34.50
2018-05-26T11:59:11.206Z,34.50
2018-05-26T12:01:38.797Z,32.00
2018-05-26T12:04:07.064Z,32.00
2018-05-26T12:06:34.603Z,32.00
2018-05-26T12:09:02.972Z,32.70
2018-05-26T12:11:30.492Z,32.70
2018-05-26T12:14:01.988Z,32.60
2018-05-26T12:16:29.596Z,34.20
2018-05-26T12:18:57.206Z,34.20
2018-05-26T12:21:27.578Z,30.60
2018-05-26T12:23:55.157Z,30.50
2018-05-26T12:26:22.807Z,31.20
2018-05-26T12:28:50.537Z,33.10
2018-05-26T12:31:18.116Z,34.40
2018-05-26T12:33:49.244Z,33.40
2018-05-26T12:36:18.714Z,35.40
2018-05-26T12:38:48.427Z,36.60
2018-05-26T12:41:17.940Z,37.00
2018-05-26T12:43:45.458Z,37.80
2018-05-26T12:46:13.016Z,37.40
2018-05-26T12:48:41.390Z,36.50
2018-05-26T12:51:08.951Z,36.40
2018-05-26T12:53:36.686Z,37.70
2018-05-26T12:56:07.118Z,37.70
2018-05-26T12:58:35.330Z,36.70
2018-05-26T13:01:02.891Z,32.00
2018-05-26T13:03:30.617Z,31.40
2018-05-26T13:05:58.350Z,30.60
2018-05-26T13:08:26.117Z,29.60
2018-05-26T13:10:53.708Z,31.80
2018-05-26T13:13:21.316Z,30.50
2018-05-26T13:15:48.819Z,30.20
2018-05-26T13:18:16.354Z,30.70
2018-05-26T13:20:48.198Z,29.40
2018-05-26T13:23:15.694Z,29.20
2018-05-26T13:25:43.988Z,29.40
2018-05-26T13:28:14.307Z,30.50
2018-05-26T13:30:41.815Z,30.50
2018-05-26T13:33:09.315Z,31.10
2018-05-26T13:35:36.969Z,33.80
2018-05-26T13:38:06.502Z,35.50
2018-05-26T13:40:34.115Z,35.50
2018-05-26T13:43:02.420Z,33.40
2018-05-26T13:45:30.830Z,32.10
2018-05-26T13:47:59.174Z,32.00
2018-05-26T13:50:26.908Z,31.90
2018-05-26T13:52:54.572Z,31.20
2018-05-26T13:55:25.359Z,30.60
2018-05-26T13:57:53.019Z,31.10
2018-05-26T14:00:20.523Z,31.20
2018-05-26T14:02:48.152Z,30.00
2018-05-26T14:05:15.685Z,29.70
2018-05-26T14:07:43.191Z,30.10
2018-05-26T14:10:10.750Z,29.60
2018-05-26T14:12:38.306Z,29.00
2018-05-26T14:15:05.794Z,28.80
2018-05-26T14:17:33.380Z,28.40
2018-05-26T14:20:01.031Z,28.50
2018-05-26T14:22:29.843Z,28.90
2018-05-26T14:24:58.429Z,29.50
2018-05-26T14:27:26.291Z,29.50
2018-05-26T14:29:53.855Z,28.20
2018-05-26T14:32:21.366Z,28.70
2018-05-26T14:34:48.883Z,28.60
2018-05-26T14:37:16.399Z,28.00
2018-05-26T14:39:43.897Z,27.80
2018-05-26T14:42:13.360Z,28.80
2018-05-26T14:44:41.590Z,29.90
2018-05-26T14:47:09.081Z,29.90
2018-05-26T14:49:36.689Z,29.70
2018-05-26T14:52:05.070Z,29.60
2018-05-26T14:54:32.723Z,29.50
2018-05-26T14:57:00.471Z,28.80
2018-05-26T14:59:28.085Z,28.30
2018-05-26T15:01:56.491Z,28.60
2018-05-26T15:04:24.843Z,28.50
2018-05-26T15:06:57.694Z,28.40
2018-05-26T15:09:26.321Z,28.10
2018-05-26T15:11:56.042Z,27.90
2018-05-26T15:14:27.907Z,27.20
2018-05-26T15:16:55.515Z,27.20
2018-05-26T15:19:28.156Z,26.90
2018-05-26T15:21:56.005Z,26.80
2018-05-26T15:24:28.554Z,26.20
2018-05-26T15:26:57.070Z,27.10
2018-05-26T15:29:24.758Z,27.10
2018-05-26T15:31:52.242Z,27.70
2018-05-26T15:34:19.828Z,27.50
2018-05-26T15:36:47.402Z,26.80
2018-05-26T15:39:15.942Z,26.00
2018-05-26T15:41:43.459Z,26.20
2018-05-26T15:44:11.006Z,26.50
2018-05-26T15:46:38.514Z,26.90
2018-05-26T15:49:06.086Z,27.00
2018-05-26T15:51:33.791Z,27.00
2018-05-26T15:54:02.226Z,26.00
2018-05-26T15:56:34.536Z,26.00
2018-05-26T15:59:04.673Z,25.90
2018-05-26T16:01:33.211Z,25.90
2018-05-26T16:04:01.081Z,25.80
2018-05-26T16:06:28.831Z,25.90
2018-05-26T16:08:57.987Z,25.80
2018-05-26T16:11:25.755Z,25.60
2018-05-26T16:13:53.436Z,25.40
2018-05-26T16:16:28.372Z,25.30
2018-05-26T16:18:58.170Z,25.20
2018-05-26T16:21:27.494Z,25.00
2018-05-26T16:23:58.801Z,25.00
2018-05-26T16:26:27.563Z,25.00
2018-05-26T16:28:57.688Z,24.80
2018-05-26T16:31:29.303Z,25.00
2018-05-26T16:33:58.102Z,25.10
2018-05-26T16:36:26.382Z,25.00
2018-05-26T16:38:53.958Z,25.20
2018-05-26T16:41:21.524Z,25.20
2018-05-26T16:43:49.018Z,25.10
2018-05-26T16:46:16.540Z,25.10
2018-05-26T16:48:44.082Z,25.10
2018-05-26T16:51:11.603Z,25.20
2018-05-26T16:53:39.122Z,25.20
2018-05-26T16:56:06.726Z,25.10
2018-05-26T16:58:34.375Z,25.00
2018-05-26T17:01:02.945Z,24.90
2018-05-26T17:03:30.761Z,24.50
2018-05-26T17:05:58.734Z,24.40
2018-05-26T17:08:27.521Z,24.40
2018-05-26T17:10:55.105Z,24.40
2018-05-26T17:13:22.609Z,24.50
2018-05-26T17:15:50.120Z,24.60
2018-05-26T17:18:18.453Z,24.60
2018-05-26T17:20:46.060Z,24.60
2018-05-26T17:23:25.027Z,24.60
2018-05-26T17:25:52.715Z,24.60
2018-05-26T17:28:21.002Z,24.50
2018-05-26T17:30:59.063Z,24.50
2018-05-26T17:33:28.540Z,24.40
2018-05-26T17:35:57.404Z,24.30
2018-05-26T17:38:24.937Z,24.20
2018-05-26T17:40:58.801Z,24.00
2018-05-26T17:43:26.672Z,24.00
2018-05-26T17:45:58.005Z,23.90
2018-05-26T17:48:25.959Z,23.80
2018-05-26T17:50:53.570Z,23.70
2018-05-26T17:53:21.110Z,23.50
2018-05-26T17:55:48.634Z,23.40
2018-05-26T17:58:16.178Z,23.30
2018-05-26T18:00:43.741Z,23.20
2018-05-26T18:03:11.266Z,23.10
2018-05-26T18:05:38.808Z,23.00
2018-05-26T18:08:07.076Z,22.90
2018-05-26T18:10:34.636Z,22.80
2018-05-26T18:13:03.166Z,22.70
2018-05-26T18:15:30.800Z,22.50
2018-05-26T18:17:58.463Z,22.40
2018-05-26T18:20:26.978Z,22.30
2018-05-26T18:22:54.631Z,22.20
2018-05-26T18:25:22.179Z,22.10
2018-05-26T18:27:49.692Z,22.10
2018-05-26T18:30:17.206Z,22.00
2018-05-26T18:32:44.716Z,21.90
2018-05-26T18:35:12.300Z,21.80
2018-05-26T18:37:39.817Z,21.70
2018-05-26T18:40:07.373Z,21.60
2018-05-26T18:42:35.096Z,21.40
2018-05-26T18:45:02.613Z,21.10
2018-05-26T18:47:31.178Z,20.90
2018-05-26T18:49:58.886Z,20.70
2018-05-26T18:52:28.626Z,20.60
2018-05-26T18:54:56.420Z,20.50
2018-05-26T18:57:27.681Z,20.50
2018-05-26T18:59:55.238Z,20.20
2018-05-26T19:02:28.002Z,20.10
2018-05-26T19:04:55.555Z,19.90
2018-05-26T19:07:29.427Z,19.70
2018-05-26T19:09:58.220Z,19.60
2018-05-26T19:12:26.675Z,19.20
2018-05-26T19:14:54.247Z,19.20
2018-05-26T19:17:22.559Z,18.90
2018-05-26T19:20:05.055Z,18.80
2018-05-26T19:22:34.359Z,18.70
2018-05-26T19:25:02.021Z,18.60
2018-05-26T19:27:29.743Z,18.50
2018-05-26T19:29:57.409Z,18.50
2018-05-26T19:32:25.039Z,18.50
2018-05-26T19:34:52.578Z,18.40
2018-05-26T19:37:20.146Z,18.30
2018-05-26T19:39:48.411Z,18.10
2018-05-26T19:42:19.708Z,18.10
2018-05-26T19:44:47.287Z,18.00
2018-05-26T19:47:14.782Z,18.00
2018-05-26T19:49:42.521Z,17.90
2018-05-26T19:52:23.910Z,17.80
2018-05-26T19:54:52.174Z,17.60
2018-05-26T19:57:19.747Z,17.60
2018-05-26T19:59:47.271Z,17.50
2018-05-26T20:02:15.580Z,17.40
2018-05-26T20:04:43.842Z,17.40
2018-05-26T20:07:11.361Z,17.40
2018-05-26T20:09:39.687Z,17.20
2018-05-26T20:12:07.198Z,17.20
2018-05-26T20:14:34.885Z,17.10
2018-05-26T20:17:02.514Z,17.00
2018-05-26T20:19:30.230Z,16.90
2018-05-26T20:21:59.080Z,16.80
2018-05-26T20:24:26.731Z,16.80
2018-05-26T20:26:57.922Z,16.80
2018-05-26T20:29:27.684Z,16.70
2018-05-26T20:31:55.219Z,16.70
2018-05-26T20:34:22.766Z,16.60
2018-05-26T20:36:50.387Z,16.60
2018-05-26T20:39:18.661Z,16.40
2018-05-26T20:41:46.241Z,16.40
2018-05-26T20:44:13.746Z,16.50
2018-05-26T20:46:41.251Z,16.50
2018-05-26T20:49:09.785Z,16.30
2018-05-26T20:51:37.349Z,16.30
2018-05-26T20:54:04.973Z,16.20
2018-05-26T20:56:32.634Z,16.10
2018-05-26T20:59:00.403Z,16.10
2018-05-26T21:01:28.043Z,16.00
2018-05-26T21:03:55.691Z,15.90
2018-05-26T21:06:23.270Z,15.90
2018-05-26T21:08:50.820Z,15.80
2018-05-26T21:11:18.325Z,15.80
2018-05-26T21:13:45.817Z,15.80
2018-05-26T21:16:13.332Z,15.80
2018-05-26T21:18:40.860Z,15.80
2018-05-26T21:21:09.163Z,15.60
2018-05-26T21:23:37.069Z,15.60
2018-05-26T21:26:07.912Z,15.50
2018-05-26T21:28:35.462Z,15.40
2018-05-26T21:31:03.800Z,15.30
2018-05-26T21:33:31.651Z,15.30
2018-05-26T21:35:59.454Z,15.30
2018-05-26T21:38:27.262Z,15.20
2018-05-26T21:40:54.839Z,15.20
2018-05-26T21:43:23.236Z,15.10
2018-05-26T21:45:50.814Z,15.10
2018-05-26T21:48:18.371Z,15.10
2018-05-26T21:50:45.895Z,15.10
2018-05-26T21:53:14.841Z,15.10
2018-05-26T21:55:42.306Z,15.10
2018-05-26T21:58:09.811Z,15.10
2018-05-26T22:00:37.292Z,15.00
2018-05-26T22:03:04.797Z,15.00
2018-05-26T22:05:33.102Z,14.90
2018-05-26T22:08:00.779Z,14.90
2018-05-26T22:10:29.390Z,14.80
2018-05-26T22:12:57.993Z,14.80
2018-05-26T22:15:26.309Z,14.70
2018-05-26T22:17:54.699Z,14.70
2018-05-26T22:20:22.161Z,14.70
2018-05-26T22:22:49.671Z,14.70
2018-05-26T22:25:17.182Z,14.60
2018-05-26T22:27:44.660Z,14.60
2018-05-26T22:30:12.126Z,14.70
2018-05-26T22:32:39.597Z,14.70
2018-05-26T22:35:07.061Z,14.60
2018-05-26T22:37:34.675Z,14.60
2018-05-26T22:40:02.225Z,14.60
2018-05-26T22:42:29.797Z,14.60
2018-05-26T22:44:57.365Z,14.50
2018-05-26T22:47:25.633Z,14.60
2018-05-26T22:49:53.122Z,14.60
2018-05-26T22:52:20.625Z,14.70
2018-05-26T22:54:48.158Z,14.80
2018-05-26T22:57:15.654Z,15.00
2018-05-26T22:59:43.119Z,15.10
2018-05-26T23:02:11.355Z,15.00
2018-05-26T23:04:38.831Z,15.00
2018-05-26T23:07:06.314Z,14.80
2018-05-26T23:09:33.829Z,14.70
2018-05-26T23:12:01.487Z,14.60
2018-05-26T23:14:29.485Z,14.60
2018-05-26T23:16:57.090Z,14.40
2018-05-26T23:19:24.592Z,14.30
2018-05-26T23:21:52.054Z,14.30
2018-05-26T23:24:19.594Z,14.20
2018-05-26T23:26:47.182Z,14.20
2018-05-26T23:29:14.711Z,14.10
2018-05-26T23:31:42.170Z,14.00
2018-05-26T23:34:09.654Z,14.00
2018-05-26T23:36:37.123Z,13.90
2018-05-26T23:39:05.375Z,13.90
2018-05-26T23:41:32.873Z,13.90
2018-05-26T23:44:00.496Z,13.80
2018-05-26T23:46:28.861Z,13.80
2018-05-26T23:48:56.478Z,13.80
2018-05-26T23:51:24.126Z,13.80
2018-05-26T23:53:51.605Z,13.70
2018-05-26T23:56:19.085Z,13.70
2018-05-26T23:58:46.578Z,13.60
